Time;durP1;ratioP1;P1;durP2;ratioP2;P2;SDS_P1;SDS_P2;PMS_P1;PMS_P2;Temp;Humidity;BMP_temperature;BMP_pressure;BME280_temperature;BME280_humidity;BME280_pressure;Samples;Min_cycle;Max_cycle;Signal;HPM_P1;HPM_P2
2021/09/13 00:02:18;;;;;;;;;;;23.40;47.50;;;;;;8366009;28;20369;-48
2021/09/13 00:06:18;;;;;;;;;;;23.40;47.50;;;;;;8366255;28;19913;-49
2021/09/13 00:10:19;;;;;;;;;;;23.40;47.50;;;;;;8365365;28;19986;-49
2021/09/13 00:14:20;;;;;;;;;;;23.40;47.50;;;;;;8365248;28;19917;-47
2021/09/13 00:18:21;;;;;;;;;;;23.40;47.60;;;;;;8365284;28;19932;-49
2021/09/13 00:22:21;;;;;;;;;;;23.40;47.50;;;;;;8364575;28;20361;-47
2021/09/13 00:26:22;;;;;;;;;;;23.40;47.50;;;;;;8365862;28;19964;-49
2021/09/13 00:30:22;;;;;;;;;;;23.40;47.60;;;;;;8365002;28;19916;-47
2021/09/13 00:34:22;;;;;;;;;;;23.40;47.60;;;;;;8364288;28;19924;-47
2021/09/13 00:38:23;;;;;;;;;;;23.40;47.60;;;;;;8364312;28;19920;-47
2021/09/13 00:42:23;;;;;;;;;;;23.40;47.60;;;;;;8364996;28;19987;-47
2021/09/13 00:46:24;;;;;;;;;;;23.40;47.60;;;;;;8363950;28;19917;-48
2021/09/13 00:50:24;;;;;;;;;;;23.30;47.50;;;;;;8364205;28;19924;-47
2021/09/13 00:54:25;;;;;;;;;;;23.30;47.50;;;;;;8364330;28;19913;-47
2021/09/13 00:58:27;;;;;;;;;;;23.30;47.50;;;;;;8363443;28;19924;-47
2021/09/13 01:02:27;;;;;;;;;;;23.30;47.50;;;;;;8363667;28;19916;-47
2021/09/13 01:06:28;;;;;;;;;;;23.30;47.50;;;;;;8387943;28;19977;-47
2021/09/13 01:10:28;;;;;;;;;;;23.30;47.50;;;;;;8396774;28;20373;-48
2021/09/13 01:14:36;;;;;;;;;;;23.30;47.50;;;;;;8396661;28;19912;-48
2021/09/13 01:18:36;;;;;;;;;;;23.30;47.50;;;;;;8397354;28;19928;-48
2021/09/13 01:22:38;;;;;;;;;;;23.30;47.50;;;;;;8396084;28;19917;-48
2021/09/13 01:26:39;;;;;;;;;;;23.30;47.60;;;;;;8396601;28;19927;-47
2021/09/13 01:30:39;;;;;;;;;;;23.30;47.60;;;;;;8396320;28;19913;-47
2021/09/13 01:34:40;;;;;;;;;;;23.30;47.60;;;;;;8396591;28;19939;-47
2021/09/13 01:38:40;;;;;;;;;;;23.30;47.60;;;;;;8396202;28;20439;-49
2021/09/13 01:42:41;;;;;;;;;;;23.30;47.60;;;;;;8396445;28;20351;-48
2021/09/13 01:46:41;;;;;;;;;;;23.20;47.50;;;;;;8395735;28;20003;-47
2021/09/13 01:50:42;;;;;;;;;;;23.20;47.50;;;;;;8396040;28;19928;-47
2021/09/13 01:54:42;;;;;;;;;;;23.20;47.50;;;;;;8396832;28;20373;-47
2021/09/13 01:58:43;;;;;;;;;;;23.20;47.50;;;;;;8395568;28;20031;-47
2021/09/13 02:02:43;;;;;;;;;;;23.20;47.50;;;;;;8396273;28;19923;-48
2021/09/13 02:06:44;;;;;;;;;;;23.20;47.50;;;;;;8395654;28;19913;-48
2021/09/13 02:10:44;;;;;;;;;;;23.20;47.50;;;;;;8396790;28;19920;-49
2021/09/13 02:14:45;;;;;;;;;;;23.20;47.60;;;;;;8401801;28;20019;-47
2021/09/13 02:18:45;;;;;;;;;;;23.20;47.50;;;;;;8401816;28;19927;-47
2021/09/13 02:22:45;;;;;;;;;;;23.20;47.60;;;;;;8401293;28;20452;-47
2021/09/13 02:26:46;;;;;;;;;;;23.20;47.60;;;;;;8402139;28;19916;-51
2021/09/13 02:30:46;;;;;;;;;;;23.20;47.60;;;;;;8401996;28;19928;-48
2021/09/13 02:34:47;;;;;;;;;;;23.20;47.60;;;;;;8401329;28;19963;-47
2021/09/13 02:38:47;;;;;;;;;;;23.10;47.50;;;;;;8401150;28;19921;-47
2021/09/13 02:42:50;;;;;;;;;;;23.10;47.50;;;;;;8401221;28;19924;-47
2021/09/13 02:46:51;;;;;;;;;;;23.10;47.50;;;;;;8401714;28;19919;-47
2021/09/13 02:50:51;;;;;;;;;;;23.10;47.50;;;;;;8400991;28;20310;-48
2021/09/13 02:54:52;;;;;;;;;;;23.10;47.50;;;;;;8401018;28;19957;-48
2021/09/13 02:58:52;;;;;;;;;;;23.10;47.50;;;;;;8400126;28;20027;-47
2021/09/13 03:02:53;;;;;;;;;;;23.10;47.50;;;;;;8401043;28;19912;-51
2021/09/13 03:06:53;;;;;;;;;;;23.10;47.60;;;;;;8369607;28;19917;-46
2021/09/13 03:10:54;;;;;;;;;;;23.10;47.60;;;;;;8366606;28;19939;-48
2021/09/13 03:14:54;;;;;;;;;;;23.10;47.60;;;;;;8367563;28;20289;-47
2021/09/13 03:18:54;;;;;;;;;;;23.00;47.50;;;;;;8366708;28;20400;-49
2021/09/13 03:22:55;;;;;;;;;;;23.00;47.50;;;;;;8367042;28;19999;-47
2021/09/13 03:26:55;;;;;;;;;;;23.10;47.60;;;;;;8366728;28;19917;-48
2021/09/13 03:30:56;;;;;;;;;;;23.00;47.50;;;;;;8366471;28;19912;-49
2021/09/13 03:34:57;;;;;;;;;;;23.00;47.50;;;;;;8366861;28;19912;-48
2021/09/13 03:38:57;;;;;;;;;;;23.00;47.50;;;;;;8367163;28;20020;-51
2021/09/13 03:42:57;;;;;;;;;;;23.00;47.60;;;;;;8366174;28;19917;-50
2021/09/13 03:46:58;;;;;;;;;;;23.00;47.50;;;;;;8366534;28;19916;-49
2021/09/13 03:50:58;;;;;;;;;;;23.00;47.50;;;;;;8366251;28;19913;-50
2021/09/13 03:54:59;;;;;;;;;;;23.00;47.60;;;;;;8366086;28;20020;-49
2021/09/13 03:58:59;;;;;;;;;;;23.00;47.60;;;;;;8365778;28;19924;-52
2021/09/13 04:03:02;;;;;;;;;;;23.00;47.50;;;;;;8365791;28;19917;-48
2021/09/13 04:07:15;;;;;;;;;;;23.00;47.60;;;;;;8365340;28;20030;-52
2021/09/13 04:11:21;;;;;;;;;;;22.90;47.50;;;;;;8368125;28;19925;-49
2021/09/13 04:15:22;;;;;;;;;;;22.90;47.50;;;;;;8370324;28;20003;-48
2021/09/13 04:19:23;;;;;;;;;;;22.90;47.50;;;;;;8364645;28;19951;-48
2021/09/13 04:23:23;;;;;;;;;;;22.90;47.50;;;;;;8365001;28;19917;-49
2021/09/13 04:27:24;;;;;;;;;;;22.90;47.50;;;;;;8364756;28;19917;-48
2021/09/13 04:31:24;;;;;;;;;;;22.90;47.50;;;;;;8365072;28;20338;-49
2021/09/13 04:35:25;;;;;;;;;;;22.90;47.50;;;;;;8364391;28;19923;-49
2021/09/13 04:39:25;;;;;;;;;;;22.90;47.50;;;;;;8364514;28;19925;-49
2021/09/13 04:43:26;;;;;;;;;;;22.90;47.50;;;;;;8363945;28;19967;-48
2021/09/13 04:47:26;;;;;;;;;;;22.90;47.50;;;;;;8364238;28;19913;-48
2021/09/13 04:51:27;;;;;;;;;;;22.90;47.50;;;;;;8364888;28;19920;-48
2021/09/13 04:55:28;;;;;;;;;;;22.80;47.50;;;;;;8363580;28;19917;-50
2021/09/13 04:59:28;;;;;;;;;;;22.80;47.50;;;;;;8364316;28;19947;-49
2021/09/13 05:03:29;;;;;;;;;;;22.80;47.50;;;;;;8363996;28;19924;-49
2021/09/13 05:07:29;;;;;;;;;;;22.90;47.60;;;;;;8364096;28;20427;-49
2021/09/13 05:11:30;;;;;;;;;;;22.80;47.50;;;;;;8363692;28;20004;-49
2021/09/13 05:15:31;;;;;;;;;;;22.80;47.50;;;;;;8363751;28;19912;-48
2021/09/13 05:19:31;;;;;;;;;;;22.80;47.50;;;;;;8363176;28;20392;-47
2021/09/13 05:23:32;;;;;;;;;;;22.80;47.50;;;;;;8364402;28;19920;-51
2021/09/13 05:27:32;;;;;;;;;;;22.80;47.50;;;;;;8363387;28;19928;-49
2021/09/13 05:31:33;;;;;;;;;;;22.80;47.50;;;;;;8363013;28;20277;-51
2021/09/13 05:35:33;;;;;;;;;;;22.80;47.50;;;;;;8363382;28;19956;-50
2021/09/13 05:39:35;;;;;;;;;;;22.80;47.50;;;;;;8363228;28;19939;-48
2021/09/13 05:43:35;;;;;;;;;;;22.80;47.50;;;;;;8363479;28;20277;-49
2021/09/13 05:47:35;;;;;;;;;;;22.70;47.50;;;;;;8365854;28;19924;-48
2021/09/13 05:51:45;;;;;;;;;;;22.80;47.50;;;;;;8369801;28;19959;-48
2021/09/13 05:55:45;;;;;;;;;;;22.80;47.50;;;;;;8369252;28;19939;-49
2021/09/13 05:59:46;;;;;;;;;;;22.80;47.50;;;;;;8370411;28;20011;-50
2021/09/13 06:03:46;;;;;;;;;;;22.70;47.50;;;;;;8369383;28;19921;-48
2021/09/13 06:07:46;;;;;;;;;;;22.80;47.50;;;;;;8368920;28;20311;-50
2021/09/13 06:11:47;;;;;;;;;;;22.80;47.50;;;;;;8369285;28;20319;-51
2021/09/13 06:15:47;;;;;;;;;;;22.80;47.40;;;;;;8369152;28;20377;-49
2021/09/13 06:19:48;;;;;;;;;;;22.90;47.30;;;;;;8369177;28;20015;-49
2021/09/13 06:23:49;;;;;;;;;;;23.00;47.10;;;;;;8368688;28;20365;-48
2021/09/13 06:27:49;;;;;;;;;;;23.10;46.80;;;;;;8368606;28;19916;-50
2021/09/13 06:31:50;;;;;;;;;;;23.20;46.60;;;;;;8368913;28;19960;-48
2021/09/13 06:35:50;;;;;;;;;;;23.20;46.50;;;;;;8368959;28;20374;-48
2021/09/13 06:39:56;;;;;;;;;;;23.20;46.60;;;;;;8367785;28;19932;-48
2021/09/13 06:43:58;;;;;;;;;;;23.10;46.70;;;;;;8367755;28;19996;-49
2021/09/13 06:47:58;;;;;;;;;;;23.10;46.70;;;;;;8368209;28;19917;-50
2021/09/13 06:51:59;;;;;;;;;;;23.00;46.90;;;;;;8368022;28;19919;-49
2021/09/13 06:56:01;;;;;;;;;;;23.00;47.00;;;;;;8367420;28;19966;-51
2021/09/13 07:00:06;;;;;;;;;;;22.90;47.00;;;;;;8366327;28;19928;-49
2021/09/13 07:04:06;;;;;;;;;;;22.90;47.10;;;;;;8366999;28;19917;-48
2021/09/13 07:08:07;;;;;;;;;;;22.90;47.10;;;;;;8367521;28;19921;-49
2021/09/13 07:12:08;;;;;;;;;;;22.90;47.20;;;;;;8367896;28;19924;-49
2021/09/13 07:16:08;;;;;;;;;;;22.80;47.20;;;;;;8366828;28;20281;-50
2021/09/13 07:20:09;;;;;;;;;;;22.80;47.20;;;;;;8367158;28;19921;-47
2021/09/13 07:24:09;;;;;;;;;;;22.80;47.30;;;;;;8366958;28;20442;-47
2021/09/13 07:28:10;;;;;;;;;;;22.80;47.30;;;;;;8367159;28;20480;-50
2021/09/13 07:32:10;;;;;;;;;;;22.80;47.30;;;;;;8367153;28;19917;-50
2021/09/13 07:36:11;;;;;;;;;;;22.80;47.30;;;;;;8366645;28;20373;-49
2021/09/13 07:40:12;;;;;;;;;;;22.80;47.30;;;;;;8366018;28;19913;-46
2021/09/13 07:44:12;;;;;;;;;;;22.80;47.30;;;;;;8366787;28;19920;-48
2021/09/13 07:48:13;;;;;;;;;;;22.80;47.30;;;;;;8366980;28;19921;-51
2021/09/13 07:52:13;;;;;;;;;;;22.80;47.30;;;;;;8365722;28;19924;-49
2021/09/13 07:56:14;;;;;;;;;;;22.80;47.30;;;;;;8366227;28;19917;-48
2021/09/13 08:00:14;;;;;;;;;;;22.80;47.40;;;;;;8365954;28;19913;-48
2021/09/13 08:04:15;;;;;;;;;;;22.80;47.40;;;;;;8366072;28;19924;-48
2021/09/13 08:08:15;;;;;;;;;;;22.80;47.40;;;;;;8365267;28;20289;-48
2021/09/13 08:12:16;;;;;;;;;;;22.80;47.40;;;;;;8365087;28;20374;-50
2021/09/13 08:16:16;;;;;;;;;;;22.80;47.40;;;;;;8364836;28;19931;-48
2021/09/13 08:20:17;;;;;;;;;;;22.80;47.40;;;;;;8366301;28;19913;-47
2021/09/13 08:24:17;;;;;;;;;;;22.90;47.50;;;;;;8365178;28;19917;-48
2021/09/13 08:28:20;;;;;;;;;;;22.80;47.50;;;;;;8364637;28;19923;-47
2021/09/13 08:32:20;;;;;;;;;;;22.90;47.50;;;;;;8364847;28;20001;-48
2021/09/13 08:36:21;;;;;;;;;;;22.80;47.50;;;;;;8364632;28;20699;-48
2021/09/13 08:40:21;;;;;;;;;;;22.80;47.60;;;;;;8364768;28;19912;-48
2021/09/13 08:44:22;;;;;;;;;;;22.90;47.60;;;;;;8364821;28;19916;-47
2021/09/13 08:52:29;;;;;;;;;;;22.90;47.60;;;;;;8365135;28;19923;-48
2021/09/13 08:56:38;;;;;;;;;;;22.90;47.60;;;;;;8365198;28;20369;-48
2021/09/13 09:00:41;;;;;;;;;;;22.90;47.60;;;;;;8362796;28;19920;-47
2021/09/13 09:04:44;;;;;;;;;;;22.90;47.60;;;;;;8363582;28;19917;-48
2021/09/13 09:08:56;;;;;;;;;;;22.90;47.60;;;;;;8363864;28;19927;-48
2021/09/13 09:12:57;;;;;;;;;;;22.90;47.60;;;;;;8363441;28;20023;-47
2021/09/13 09:16:59;;;;;;;;;;;23.00;47.60;;;;;;8364382;28;19921;-47
2021/09/13 09:20:59;;;;;;;;;;;22.90;47.60;;;;;;8363132;28;20019;-48
2021/09/13 09:25:03;;;;;;;;;;;23.00;47.70;;;;;;8363140;28;19924;-48
2021/09/13 09:29:04;;;;;;;;;;;23.00;47.60;;;;;;8363352;28;19927;-47
2021/09/13 09:33:09;;;;;;;;;;;23.00;47.60;;;;;;8364231;28;19912;-47
2021/09/13 09:37:11;;;;;;;;;;;23.00;47.60;;;;;;8362971;28;19928;-49
2021/09/13 09:41:15;;;;;;;;;;;23.00;47.60;;;;;;8363044;28;19920;-47
2021/09/13 09:45:16;;;;;;;;;;;23.00;47.60;;;;;;8363381;28;20369;-47
2021/09/13 09:49:17;;;;;;;;;;;23.00;47.60;;;;;;8362621;28;19932;-50
2021/09/13 09:53:19;;;;;;;;;;;23.10;47.60;;;;;;8363987;28;20286;-51
2021/09/13 09:57:20;;;;;;;;;;;23.10;47.60;;;;;;8362967;28;19928;-47
2021/09/13 10:01:34;;;;;;;;;;;23.10;47.60;;;;;;8362411;28;19928;-49
2021/09/13 10:05:35;;;;;;;;;;;23.10;47.60;;;;;;8363091;28;19916;-49
2021/09/13 10:09:36;;;;;;;;;;;23.10;47.60;;;;;;8363373;28;19963;-48
2021/09/13 10:13:36;;;;;;;;;;;23.10;47.60;;;;;;8362272;28;20266;-50
2021/09/13 10:17:37;;;;;;;;;;;23.10;47.50;;;;;;8362508;28;20015;-51
2021/09/13 10:21:38;;;;;;;;;;;23.20;47.60;;;;;;8362546;28;20396;-47
2021/09/13 10:25:39;;;;;;;;;;;23.20;47.60;;;;;;8361988;28;20308;-47
2021/09/13 10:29:40;;;;;;;;;;;23.20;47.50;;;;;;8363492;28;19917;-48
2021/09/13 10:33:56;;;;;;;;;;;23.20;47.50;;;;;;8365100;28;19917;-48
2021/09/13 10:37:57;;;;;;;;;;;23.20;47.50;;;;;;8368024;28;19931;-47
2021/09/13 10:41:57;;;;;;;;;;;23.20;47.50;;;;;;8368233;28;19917;-47
2021/09/13 10:45:58;;;;;;;;;;;23.20;47.50;;;;;;8368730;28;19963;-47
2021/09/13 10:50:17;;;;;;;;;;;23.30;47.50;;;;;;8368394;28;19935;-47
2021/09/13 10:54:18;;;;;;;;;;;23.30;47.50;;;;;;8368225;28;19962;-48
2021/09/13 10:58:19;;;;;;;;;;;23.30;47.50;;;;;;8366935;28;19925;-48
2021/09/13 11:02:20;;;;;;;;;;;23.30;47.50;;;;;;8367811;28;19917;-50
2021/09/13 11:06:20;;;;;;;;;;;23.30;47.50;;;;;;8367184;28;20007;-48
2021/09/13 11:10:20;;;;;;;;;;;23.30;47.40;;;;;;8367176;28;19925;-49
2021/09/13 11:14:22;;;;;;;;;;;23.30;47.40;;;;;;8367630;28;20000;-51
2021/09/13 11:18:36;;;;;;;;;;;23.40;47.40;;;;;;8367438;28;19921;-51
2021/09/13 11:22:45;;;;;;;;;;;23.40;47.40;;;;;;8366837;28;19917;-50
2021/09/13 11:26:47;;;;;;;;;;;23.40;47.40;;;;;;8368044;28;19917;-49
2021/09/13 11:30:48;;;;;;;;;;;23.40;47.90;;;;;;8367295;28;19923;-48
2021/09/13 11:34:50;;;;;;;;;;;23.40;47.40;;;;;;8366582;28;19916;-49
2021/09/13 11:38:57;;;;;;;;;;;23.40;47.40;;;;;;8366824;28;19921;-48
2021/09/13 11:43:07;;;;;;;;;;;23.40;47.40;;;;;;8366900;28;19927;-48
2021/09/13 11:47:09;;;;;;;;;;;23.40;47.40;;;;;;8365883;28;20388;-49
2021/09/13 11:51:09;;;;;;;;;;;23.40;47.40;;;;;;8366098;28;19920;-49
2021/09/13 11:55:12;;;;;;;;;;;23.50;47.50;;;;;;8365423;28;19979;-48
2021/09/13 11:59:18;;;;;;;;;;;23.50;47.40;;;;;;8366241;28;19991;-49
2021/09/13 12:03:27;;;;;;;;;;;23.50;47.50;;;;;;8366957;28;19943;-48
2021/09/13 12:07:28;;;;;;;;;;;23.50;47.50;;;;;;8365499;28;19917;-47
2021/09/13 12:11:28;;;;;;;;;;;23.50;47.40;;;;;;8365897;28;19920;-48
2021/09/13 12:15:32;;;;;;;;;;;23.50;47.40;;;;;;8365502;28;19913;-48
2021/09/13 12:19:33;;;;;;;;;;;23.60;47.40;;;;;;8365731;28;19929;-48
2021/09/13 12:23:38;;;;;;;;;;;23.60;47.30;;;;;;8365356;28;20333;-49
2021/09/13 12:27:39;;;;;;;;;;;23.60;47.30;;;;;;8365157;28;19916;-48
2021/09/13 12:31:40;;;;;;;;;;;23.60;47.30;;;;;;8364588;28;19924;-49
2021/09/13 12:35:41;;;;;;;;;;;23.70;47.30;;;;;;8365148;28;19917;-47
2021/09/13 12:39:58;;;;;;;;;;;23.60;47.30;;;;;;8365514;28;20385;-48
2021/09/13 12:43:59;;;;;;;;;;;23.70;47.30;;;;;;8364547;28;20391;-51
2021/09/13 12:48:00;;;;;;;;;;;23.70;47.30;;;;;;8364645;28;19927;-50
2021/09/13 12:52:02;;;;;;;;;;;23.70;47.30;;;;;;8363978;28;19917;-52
2021/09/13 12:56:13;;;;;;;;;;;23.70;47.30;;;;;;8365262;28;19917;-47
2021/09/13 13:00:14;;;;;;;;;;;23.70;47.20;;;;;;8364848;28;19935;-49
2021/09/13 13:04:16;;;;;;;;;;;23.70;47.20;;;;;;8388418;28;19924;-51
2021/09/13 13:08:17;;;;;;;;;;;23.70;47.20;;;;;;8397007;28;19917;-51
2021/09/13 13:12:17;;;;;;;;;;;23.80;47.20;;;;;;8397363;28;19970;-48
2021/09/13 13:16:18;;;;;;;;;;;23.80;47.20;;;;;;8397334;28;19970;-48
2021/09/13 13:20:19;;;;;;;;;;;23.80;47.30;;;;;;8396842;28;20019;-51
2021/09/13 13:24:21;;;;;;;;;;;23.80;47.30;;;;;;8396849;28;19916;-49
2021/09/13 13:28:22;;;;;;;;;;;23.80;47.20;;;;;;8396399;28;19927;-52
2021/09/13 13:32:23;;;;;;;;;;;23.80;47.20;;;;;;8397522;28;19931;-49
2021/09/13 13:36:24;;;;;;;;;;;23.80;47.20;;;;;;8396533;28;19920;-51
2021/09/13 13:40:25;;;;;;;;;;;23.80;47.20;;;;;;8396156;28;19948;-48
2021/09/13 13:44:25;;;;;;;;;;;23.80;47.20;;;;;;8396504;28;19916;-48
2021/09/13 13:48:26;;;;;;;;;;;23.80;47.20;;;;;;8396277;28;19922;-52
2021/09/13 13:52:26;;;;;;;;;;;23.80;47.20;;;;;;8396465;28;19916;-48
2021/09/13 13:56:27;;;;;;;;;;;23.80;47.10;;;;;;8396364;28;20222;-48
2021/09/13 14:00:28;;;;;;;;;;;23.90;47.20;;;;;;8396137;28;20038;-49
2021/09/13 14:04:28;;;;;;;;;;;23.80;47.10;;;;;;8395555;28;19920;-51
2021/09/13 14:08:29;;;;;;;;;;;23.90;47.20;;;;;;8399213;28;19920;-47
2021/09/13 14:12:29;;;;;;;;;;;23.90;47.10;;;;;;8402620;28;20379;-48
2021/09/13 14:16:30;;;;;;;;;;;23.90;47.20;;;;;;8402059;28;19924;-48
2021/09/13 14:20:30;;;;;;;;;;;23.90;47.20;;;;;;8402237;28;19916;-48
2021/09/13 14:24:31;;;;;;;;;;;23.90;47.10;;;;;;8402676;28;19940;-47
2021/09/13 14:28:31;;;;;;;;;;;23.90;47.10;;;;;;8402061;28;19917;-48
2021/09/13 14:32:32;;;;;;;;;;;23.90;47.10;;;;;;8401948;28;19917;-50
2021/09/13 14:36:33;;;;;;;;;;;23.90;47.10;;;;;;8401877;28;19930;-48
2021/09/13 14:40:36;;;;;;;;;;;23.90;47.10;;;;;;8399942;28;20012;-47
2021/09/13 14:44:36;;;;;;;;;;;23.90;47.10;;;;;;8402513;28;19924;-48
2021/09/13 14:48:38;;;;;;;;;;;23.90;47.10;;;;;;8401410;28;19956;-48
2021/09/13 14:52:41;;;;;;;;;;;23.90;47.10;;;;;;8401016;28;20288;-50
2021/09/13 14:56:41;;;;;;;;;;;24.00;47.10;;;;;;8400890;28;20410;-47
2021/09/13 15:00:42;;;;;;;;;;;24.00;47.10;;;;;;8401637;28;19913;-50
2021/09/13 15:04:42;;;;;;;;;;;24.00;47.00;;;;;;8400344;28;20060;-48
2021/09/13 15:08:43;;;;;;;;;;;24.00;47.10;;;;;;8400611;28;19993;-47
2021/09/13 15:12:44;;;;;;;;;;;24.00;47.10;;;;;;8401121;28;20021;-49
2021/09/13 15:16:44;;;;;;;;;;;24.00;47.10;;;;;;8399861;28;19929;-47
2021/09/13 15:20:45;;;;;;;;;;;24.00;47.10;;;;;;8400168;28;19923;-47
2021/09/13 15:24:46;;;;;;;;;;;24.00;47.10;;;;;;8400160;28;20448;-47
2021/09/13 15:28:47;;;;;;;;;;;24.00;47.10;;;;;;8399805;28;19920;-51
2021/09/13 15:32:47;;;;;;;;;;;24.00;47.10;;;;;;8400055;28;20026;-49
2021/09/13 15:36:48;;;;;;;;;;;24.00;47.00;;;;;;8399215;28;19924;-47
2021/09/13 15:40:48;;;;;;;;;;;24.00;47.00;;;;;;8399539;28;20007;-48
2021/09/13 15:44:49;;;;;;;;;;;24.00;47.00;;;;;;8399532;28;19917;-47
2021/09/13 15:48:49;;;;;;;;;;;24.00;47.00;;;;;;8399295;28;20011;-47
2021/09/13 15:52:50;;;;;;;;;;;24.00;47.00;;;;;;8399560;28;20426;-50
2021/09/13 15:56:51;;;;;;;;;;;24.00;47.00;;;;;;8399045;28;19924;-49
2021/09/13 16:00:51;;;;;;;;;;;24.00;47.00;;;;;;8399064;28;19999;-48
2021/09/13 16:04:52;;;;;;;;;;;24.00;47.00;;;;;;8398342;28;19967;-48
2021/09/13 16:08:52;;;;;;;;;;;24.00;47.00;;;;;;8399293;28;19963;-50
2021/09/13 16:12:52;;;;;;;;;;;24.00;47.00;;;;;;8399330;28;19917;-49
2021/09/13 16:16:54;;;;;;;;;;;24.00;47.00;;;;;;8397902;28;19935;-51
2021/09/13 16:20:55;;;;;;;;;;;24.00;47.00;;;;;;8398353;28;19920;-51
2021/09/13 16:24:57;;;;;;;;;;;24.00;47.00;;;;;;8391381;28;19923;-48
2021/09/13 16:28:57;;;;;;;;;;;24.00;47.00;;;;;;8365990;28;19917;-49
2021/09/13 16:32:58;;;;;;;;;;;24.00;47.00;;;;;;8364445;28;20395;-50
2021/09/13 16:36:59;;;;;;;;;;;24.10;47.00;;;;;;8364283;28;20507;-49
2021/09/13 16:40:59;;;;;;;;;;;24.00;47.00;;;;;;8364712;28;19923;-47
2021/09/13 16:44:59;;;;;;;;;;;24.00;47.00;;;;;;8364891;28;20043;-47
2021/09/13 16:49:00;;;;;;;;;;;24.00;47.00;;;;;;8364504;28;19917;-47
2021/09/13 16:53:00;;;;;;;;;;;24.10;47.10;;;;;;8388372;28;19917;-48
2021/09/13 16:57:01;;;;;;;;;;;24.10;47.00;;;;;;8396992;28;19924;-47
2021/09/13 17:01:05;;;;;;;;;;;24.10;47.00;;;;;;8396827;28;20015;-48
2021/09/13 17:05:05;;;;;;;;;;;24.10;47.00;;;;;;8397535;28;19923;-51
2021/09/13 17:09:06;;;;;;;;;;;24.10;47.10;;;;;;8397047;28;20070;-50
2021/09/13 17:13:07;;;;;;;;;;;24.00;47.00;;;;;;8395849;28;19917;-49
2021/09/13 17:17:07;;;;;;;;;;;24.10;47.00;;;;;;8388474;28;20341;-48
2021/09/13 17:21:08;;;;;;;;;;;24.10;47.00;;;;;;8363645;28;19917;-47
2021/09/13 17:25:08;;;;;;;;;;;24.00;47.00;;;;;;8362726;28;19996;-47
2021/09/13 17:29:09;;;;;;;;;;;24.00;47.00;;;;;;8363364;28;20407;-48
2021/09/13 17:33:11;;;;;;;;;;;24.10;47.10;;;;;;8363044;28;19917;-49
2021/09/13 17:37:12;;;;;;;;;;;24.00;47.00;;;;;;8362366;28;19952;-50
2021/09/13 17:41:13;;;;;;;;;;;24.00;47.00;;;;;;8363751;28;19916;-49
2021/09/13 17:45:13;;;;;;;;;;;24.00;47.10;;;;;;8388243;28;19924;-48
2021/09/13 17:49:14;;;;;;;;;;;24.00;47.00;;;;;;8395592;28;19928;-52
2021/09/13 17:53:15;;;;;;;;;;;24.00;47.00;;;;;;8396208;28;19959;-50
2021/09/13 17:57:15;;;;;;;;;;;24.00;47.10;;;;;;8396558;28;20296;-51
2021/09/13 18:01:17;;;;;;;;;;;24.00;47.10;;;;;;8395403;28;19923;-47
2021/09/13 18:05:17;;;;;;;;;;;24.00;47.10;;;;;;8395864;28;19917;-48
2021/09/13 18:09:18;;;;;;;;;;;24.00;47.10;;;;;;8396093;28;19920;-49
2021/09/13 18:13:22;;;;;;;;;;;24.00;47.10;;;;;;8395877;28;19923;-49
2021/09/13 18:17:22;;;;;;;;;;;24.00;47.10;;;;;;8396208;28;20359;-50
2021/09/13 18:21:24;;;;;;;;;;;24.00;47.10;;;;;;8371974;28;19917;-48
2021/09/13 18:25:24;;;;;;;;;;;24.00;47.10;;;;;;8361450;28;19942;-49
2021/09/13 18:29:25;;;;;;;;;;;24.00;47.10;;;;;;8363013;28;19927;-49
2021/09/13 18:33:25;;;;;;;;;;;24.00;47.10;;;;;;8363153;28;19917;-48
2021/09/13 18:37:26;;;;;;;;;;;24.00;47.20;;;;;;8361908;28;19932;-47
2021/09/13 18:41:26;;;;;;;;;;;24.00;47.20;;;;;;8362249;28;19917;-49
2021/09/13 18:45:27;;;;;;;;;;;24.00;47.20;;;;;;8362100;28;19917;-48
2021/09/13 18:49:27;;;;;;;;;;;24.00;47.20;;;;;;8362394;28;19955;-47
2021/09/13 18:53:28;;;;;;;;;;;24.00;47.20;;;;;;8362557;28;19970;-48
2021/09/13 18:57:28;;;;;;;;;;;24.00;47.20;;;;;;8367832;28;20016;-47
2021/09/13 19:01:29;;;;;;;;;;;24.00;47.20;;;;;;8367454;28;19940;-49
2021/09/13 19:05:29;;;;;;;;;;;24.00;47.20;;;;;;8368111;28;19940;-47
2021/09/13 19:09:30;;;;;;;;;;;24.00;47.20;;;;;;8368817;28;20358;-47
2021/09/13 19:13:30;;;;;;;;;;;24.00;47.20;;;;;;8367275;28;19924;-48
2021/09/13 19:17:31;;;;;;;;;;;24.00;47.20;;;;;;8367434;28;19978;-47
2021/09/13 19:21:32;;;;;;;;;;;24.00;47.20;;;;;;8367200;28;19927;-48
2021/09/13 19:25:32;;;;;;;;;;;23.90;47.10;;;;;;8367599;28;20000;-48
2021/09/13 19:29:33;;;;;;;;;;;23.90;47.20;;;;;;8367213;28;19917;-47
2021/09/13 19:33:33;;;;;;;;;;;24.00;47.20;;;;;;8367010;28;20348;-49
2021/09/13 19:37:34;;;;;;;;;;;23.90;47.10;;;;;;8366093;28;19974;-48
2021/09/13 19:41:35;;;;;;;;;;;23.90;47.10;;;;;;8367014;28;19920;-48
2021/09/13 19:45:35;;;;;;;;;;;23.90;47.20;;;;;;8366324;28;19924;-47
2021/09/13 19:49:35;;;;;;;;;;;23.90;47.20;;;;;;8366058;28;19991;-48
2021/09/13 19:53:38;;;;;;;;;;;23.90;47.20;;;;;;8366244;28;20301;-48
2021/09/13 19:57:38;;;;;;;;;;;24.00;47.20;;;;;;8366188;28;19972;-47
2021/09/13 20:01:39;;;;;;;;;;;23.90;47.20;;;;;;8366284;28;19921;-47
2021/09/13 20:05:40;;;;;;;;;;;23.90;47.20;;;;;;8365492;28;19924;-48
2021/09/13 20:09:40;;;;;;;;;;;23.90;47.20;;;;;;8365599;28;19924;-48
2021/09/13 20:13:41;;;;;;;;;;;23.90;47.20;;;;;;8364995;28;20384;-47
2021/09/13 20:17:41;;;;;;;;;;;23.90;47.20;;;;;;8366017;28;19929;-47
2021/09/13 20:21:42;;;;;;;;;;;23.90;47.20;;;;;;8365400;28;19978;-48
2021/09/13 20:25:48;;;;;;;;;;;23.90;47.10;;;;;;8364727;28;20048;-47
2021/09/13 20:29:49;;;;;;;;;;;23.90;47.20;;;;;;8365544;28;19924;-50
2021/09/13 20:33:54;;;;;;;;;;;23.90;47.20;;;;;;8364346;28;22281;-48
2021/09/13 20:37:54;;;;;;;;;;;23.90;47.20;;;;;;8365010;28;20008;-48
2021/09/13 20:41:55;;;;;;;;;;;23.90;47.20;;;;;;8364641;28;19963;-48
2021/09/13 20:45:55;;;;;;;;;;;23.90;47.20;;;;;;8364512;28;19970;-47
2021/09/13 20:49:56;;;;;;;;;;;23.90;47.60;;;;;;8364421;28;19956;-48
2021/09/13 20:53:56;;;;;;;;;;;23.90;47.20;;;;;;8364876;28;19917;-48
2021/09/13 20:57:57;;;;;;;;;;;23.80;47.20;;;;;;8363279;28;20385;-47
2021/09/13 21:01:58;;;;;;;;;;;23.80;47.10;;;;;;8364142;28;19917;-47
2021/09/13 21:05:58;;;;;;;;;;;23.80;47.20;;;;;;8363826;28;19916;-47
2021/09/13 21:09:59;;;;;;;;;;;23.90;47.20;;;;;;8364691;28;20007;-47
2021/09/13 21:13:59;;;;;;;;;;;23.80;47.20;;;;;;8363882;28;20006;-48
2021/09/13 21:17:59;;;;;;;;;;;23.90;47.20;;;;;;8362818;28;19924;-47
2021/09/13 21:22:00;;;;;;;;;;;23.80;47.20;;;;;;8363111;28;19917;-48
2021/09/13 21:26:00;;;;;;;;;;;23.80;47.20;;;;;;8363319;28;19923;-48
2021/09/13 21:30:01;;;;;;;;;;;23.80;47.20;;;;;;8364281;28;19920;-48
2021/09/13 21:34:01;;;;;;;;;;;23.80;47.20;;;;;;8363026;28;19979;-47
2021/09/13 21:38:02;;;;;;;;;;;23.90;47.20;;;;;;8363450;28;19929;-47
2021/09/13 21:42:02;;;;;;;;;;;23.80;47.20;;;;;;8363359;28;19917;-47
2021/09/13 21:46:03;;;;;;;;;;;23.80;47.20;;;;;;8363366;28;19917;-49
2021/09/13 21:50:04;;;;;;;;;;;23.80;47.70;;;;;;8362963;28;20382;-47
2021/09/13 21:54:04;;;;;;;;;;;23.80;47.20;;;;;;8362888;28;20368;-47
2021/09/13 21:58:04;;;;;;;;;;;23.80;47.20;;;;;;8362493;28;19979;-47
2021/09/13 22:02:05;;;;;;;;;;;23.80;47.20;;;;;;8377291;28;20377;-47
2021/09/13 22:06:05;;;;;;;;;;;23.80;47.30;;;;;;8363840;28;19917;-48
2021/09/13 22:10:06;;;;;;;;;;;23.80;47.20;;;;;;8362605;28;20254;-48
2021/09/13 22:14:07;;;;;;;;;;;23.80;47.20;;;;;;8363122;28;19983;-47
2021/09/13 22:18:07;;;;;;;;;;;23.80;47.20;;;;;;8362514;28;19928;-47
2021/09/13 22:22:08;;;;;;;;;;;23.80;47.30;;;;;;8362765;28;19971;-49
2021/09/13 22:26:08;;;;;;;;;;;23.80;47.30;;;;;;8361215;28;19962;-48
2021/09/13 22:30:09;;;;;;;;;;;23.70;47.20;;;;;;8366347;28;19924;-47
2021/09/13 22:34:09;;;;;;;;;;;23.70;47.20;;;;;;8368317;28;19920;-48
2021/09/13 22:38:10;;;;;;;;;;;23.80;47.30;;;;;;8369125;28;19924;-48
2021/09/13 22:42:11;;;;;;;;;;;23.70;47.20;;;;;;8368375;28;19923;-47
2021/09/13 22:46:11;;;;;;;;;;;23.70;47.20;;;;;;8367904;28;20002;-48
2021/09/13 22:50:12;;;;;;;;;;;23.70;47.30;;;;;;8368362;28;19986;-49
2021/09/13 22:54:12;;;;;;;;;;;23.80;47.30;;;;;;8368797;28;19940;-50
2021/09/13 22:58:13;;;;;;;;;;;23.70;47.30;;;;;;8367839;28;20408;-48
2021/09/13 23:02:13;;;;;;;;;;;23.70;47.30;;;;;;8367964;28;19917;-47
2021/09/13 23:06:14;;;;;;;;;;;23.70;47.30;;;;;;8367749;28;19982;-47
2021/09/13 23:10:14;;;;;;;;;;;23.70;47.30;;;;;;8367215;28;19953;-47
2021/09/13 23:14:14;;;;;;;;;;;23.70;47.30;;;;;;8368543;28;19921;-47
2021/09/13 23:18:15;;;;;;;;;;;23.70;47.30;;;;;;8367658;28;19925;-47
2021/09/13 23:22:16;;;;;;;;;;;23.70;47.30;;;;;;8366803;28;20362;-47
2021/09/13 23:26:16;;;;;;;;;;;23.70;47.30;;;;;;8367153;28;19917;-48